Angie, Louisiana
Current Conditions -  °F | °C
As of 11:53 PM on Thursday 27 Nov 2014 (Local Time) from KHBG Reporting Station
Clear Clear  
Wind Chill: 34°   Ceiling: Unl
Heat Index: 34°   Visibility: 10mi
Dew Point: 32°   Wind: 0mph
Humidity: 92%   Direction: NA
Pressure: 30.47"   Gusts: NA
Location:  30.96°N, 89.82°W
Report Text: KHBG 280553Z AUTO 00000KT 10SM CLR 01/00 A3047 RMK AO2 SLP317 T00110000 10089 20011 401390011 53005
Loading
Personal Weather Stations






























Interactive Weather Map New forecast layout! Learn more

10-Day Weather Forecast

Advertisements
Track Severe Weather on mobile